Farmington, NM

6:09 PM MST on December 25, 2014 (GMT -0700)
Butler and 23rd Street | Change Station
CLOSE
Current Station
Personal Weather Station
Location: Farmington, NM
Elevation: 5500 ft
Nearby Weather Stations
Active Advisory: Winter Weather Advisory

Elev 5500 ft 36.75 °N, 108.20 °W | Updated 2 seconds ago

Mostly Cloudy
Mostly Cloudy
35.0 °F
Feels Like 28 °F
N
9.0
Wind Variable Wind from SW
Gusts 15.0 mph

Today
High -- | Low -- °F
--% Chance of Precip.
Yesterday
High -- | Low -- °F
Precip. -- in
7:23 AM 5:02 PM
Waxing Crescent, 21% visible
Pressure 29.65 in
Visibility 10.0 miles
Clouds Mostly Cloudy 11000 ft
Windchill 28 °F
Dew Point 28 °F
Humidity 76%
Rainfall 0.00 in
Snow Depth Not available.
UV 0 out of 12
Pollen .40 out of 12
Air Quality Not available.
Flu Activity Not available.
METAR KFMN 260053Z 22010KT 10SM BKN110 02/M04 A2962 RMK AO2 SLP039 T00171039

More Conditions Fewer Conditions

Pressure 29.65 in
Visibility 10.0 miles
Clouds Mostly Cloudy 11000 ft
Windchill 28 °F
Dew Point 28 °F
Humidity 76%
Rainfall 0.00 in
Snow Depth Not available.
UV 0 out of 12
Pollen .40 out of 12
Air Quality Not available.
Flu Activity Not available.
METAR KFMN 260053Z 22010KT 10SM BKN110 02/M04 A2962 RMK AO2 SLP039 T00171039

More Conditions Fewer Conditions

Nowcast | as of 4:24 PM MST on December 25, 2014

Into the early evening...areas of snow will increase in coverage and intensify across western and north central areas. The visibility may drop below a half mile at times...especially along and west of the Continental Divide. By 7 PM MST up to 1 inch of additional snow accumulation will be possible along the west slopes of the northwest mountains and Continental Divide...except up to 2 inches above 7500 feet.

×

10-Day Weather Forecast

Almanac

Astronomy

Dec. 25, 2014 Rise Set
Actual Time
Civil Twilight
Nautical Twilight
Astronomical Twilight
Moon
Length of Visible Light
Length of Day
Tomorrow will be .
, % of the Moon is Illuminated

Today's Extremes

State Highs State Lows

Community

WunderPhotos

Upload Photos

1,780,487 photos uploaded!

WunderBlogs® & News

Nearby

Air Quality

  Air Quality AQ Index Pollutant
Not available.

Snow Depth

Station Depth Elevation

Earthquake Activity

City Distance Mag. Time & Date
Minimum magnitude displayed is 2.5.

Coastal Water Temperatures

Place Temperature

Nearby Weather Stations